Weather at Malinau Heliport

Public forecast

Using degrees Celsius for public forecast. Weather courtesy of forecast.io.

Closest aviation weather report (METAR) to Malinau Heliport

Closest report is Tawau Airport, 100.6 nm (186.3 km) ENE.

2024/05/28 17:00 (retrieved 30 minutes ago)

WBKW 281700Z VRB03KT 9999 FEW016 25/25 Q1010

Closest aviation forecast (TAF) to Malinau Heliport

Closest forecast is Tawau Airport, 100.6 nm (186.3 km) ENE.

2024/05/28 12:00 (retrieved 6 hours ago)

TAF WBKW 281100Z 2812/2912 35006KT 9999 FEW016